createdAt,value
2019-02-19T00:01:33.962Z,18.45
2019-02-19T00:04:02.637Z,17.90
2019-02-19T00:06:31.536Z,18.32
2019-02-19T00:09:00.225Z,18.10
2019-02-19T00:11:29.111Z,16.57
2019-02-19T00:13:57.792Z,16.30
2019-02-19T00:16:26.475Z,17.87
2019-02-19T00:18:55.073Z,17.32
2019-02-19T00:21:23.744Z,17.65
2019-02-19T00:23:52.427Z,17.62
2019-02-19T00:26:21.199Z,18.15
2019-02-19T00:28:49.915Z,16.02
2019-02-19T00:31:18.597Z,18.07
2019-02-19T00:33:47.302Z,15.98
2019-02-19T00:36:15.948Z,15.10
2019-02-19T00:38:44.594Z,15.65
2019-02-19T00:41:13.309Z,15.43
2019-02-19T00:43:41.979Z,15.58
2019-02-19T00:46:10.715Z,14.83
2019-02-19T00:48:39.408Z,14.43
2019-02-19T00:51:08.099Z,16.50
2019-02-19T00:53:36.738Z,15.25
2019-02-19T00:56:05.403Z,15.65
2019-02-19T00:58:34.076Z,13.98
2019-02-19T01:01:02.752Z,14.30
2019-02-19T01:03:31.399Z,14.35
2019-02-19T01:06:00.074Z,14.63
2019-02-19T01:08:28.706Z,15.08
2019-02-19T01:10:57.388Z,13.72
2019-02-19T01:13:26.033Z,15.05
2019-02-19T01:15:55.398Z,15.13
2019-02-19T01:18:24.072Z,14.23
2019-02-19T01:20:52.808Z,13.70
2019-02-19T01:23:21.486Z,14.63
2019-02-19T01:25:50.187Z,14.05
2019-02-19T01:28:18.861Z,13.62
2019-02-19T01:30:47.593Z,14.47
2019-02-19T01:33:16.258Z,14.10
2019-02-19T01:35:44.820Z,14.10
2019-02-19T01:38:14.003Z,13.80
2019-02-19T01:40:42.658Z,14.58
2019-02-19T01:43:11.318Z,13.83
2019-02-19T01:45:40.040Z,14.65
2019-02-19T01:48:08.793Z,13.55
2019-02-19T01:50:37.498Z,13.08
2019-02-19T01:53:06.205Z,14.43
2019-02-19T01:55:34.853Z,13.18
2019-02-19T01:58:03.560Z,13.83
2019-02-19T02:00:32.354Z,13.32
2019-02-19T02:03:01.024Z,13.78
2019-02-19T02:05:29.689Z,13.30
2019-02-19T02:07:58.354Z,12.50
2019-02-19T02:10:27.117Z,13.55
2019-02-19T02:12:55.795Z,13.05
2019-02-19T02:15:24.489Z,14.95
2019-02-19T02:17:53.185Z,14.58
2019-02-19T02:20:21.762Z,14.28
2019-02-19T02:22:50.439Z,13.80
2019-02-19T02:25:19.078Z,13.45
2019-02-19T02:27:47.724Z,12.98
2019-02-19T02:30:16.488Z,13.80
2019-02-19T02:32:45.145Z,13.90
2019-02-19T02:35:13.796Z,14.13
2019-02-19T02:37:42.420Z,13.60
2019-02-19T02:40:11.073Z,14.20
2019-02-19T02:42:39.746Z,14.55
2019-02-19T02:45:08.416Z,13.38
2019-02-19T02:47:37.090Z,12.70
2019-02-19T02:50:05.764Z,13.75
2019-02-19T02:52:34.450Z,12.75
2019-02-19T02:55:03.138Z,14.58
2019-02-19T02:57:31.880Z,13.35
2019-02-19T03:00:00.539Z,13.98
2019-02-19T03:02:29.239Z,13.08
2019-02-19T03:04:57.919Z,13.62
2019-02-19T03:07:31.238Z,14.90
2019-02-19T03:09:59.942Z,14.63
2019-02-19T03:12:28.594Z,13.40
2019-02-19T03:14:57.327Z,13.38
2019-02-19T03:17:26.021Z,14.00
2019-02-19T03:19:54.746Z,14.33
2019-02-19T03:22:23.455Z,14.58
2019-02-19T03:24:52.157Z,14.25
2019-02-19T03:27:20.806Z,13.30
2019-02-19T03:29:49.500Z,13.32
2019-02-19T03:32:18.254Z,14.05
2019-02-19T03:34:46.949Z,14.75
2019-02-19T03:37:15.608Z,12.65
2019-02-19T03:39:44.226Z,14.83
2019-02-19T03:42:12.902Z,14.65
2019-02-19T03:44:41.485Z,14.20
2019-02-19T03:47:10.163Z,14.43
2019-02-19T03:49:38.882Z,14.50
2019-02-19T03:52:07.585Z,14.58
2019-02-19T03:54:36.245Z,14.33
2019-02-19T03:57:04.918Z,14.83
2019-02-19T03:59:33.603Z,14.58
2019-02-19T04:02:02.228Z,15.30
2019-02-19T04:04:30.940Z,13.85
2019-02-19T04:06:59.643Z,14.58
2019-02-19T04:09:28.319Z,15.25
2019-02-19T04:11:56.960Z,15.35
2019-02-19T04:14:25.625Z,15.83
2019-02-19T04:16:54.315Z,15.10
2019-02-19T04:19:23.082Z,14.78
2019-02-19T04:21:51.668Z,15.88
2019-02-19T04:24:20.345Z,14.43
2019-02-19T04:26:48.996Z,15.13
2019-02-19T04:29:17.686Z,15.48
2019-02-19T04:31:46.356Z,17.35
2019-02-19T04:34:15.040Z,15.45
2019-02-19T04:36:43.740Z,17.30
2019-02-19T04:39:12.401Z,16.52
2019-02-19T04:41:40.961Z,17.77
2019-02-19T04:44:09.676Z,17.40
2019-02-19T04:46:38.426Z,16.40
2019-02-19T04:49:07.073Z,16.52
2019-02-19T04:51:35.737Z,16.02
2019-02-19T04:54:04.417Z,16.73
2019-02-19T04:56:33.209Z,15.90
2019-02-19T04:59:01.881Z,16.87
2019-02-19T05:01:30.655Z,16.75
2019-02-19T05:03:59.340Z,17.52
2019-02-19T05:06:28.069Z,16.77
2019-02-19T05:08:56.757Z,17.85
2019-02-19T05:11:25.453Z,17.05
2019-02-19T05:13:57.618Z,16.95
2019-02-19T05:16:26.380Z,17.35
2019-02-19T05:18:55.181Z,19.05
2019-02-19T05:21:23.917Z,19.17
2019-02-19T05:23:52.663Z,18.45
2019-02-19T05:26:21.482Z,17.73
2019-02-19T05:28:50.329Z,16.67
2019-02-19T05:31:19.152Z,16.48
2019-02-19T05:33:47.905Z,17.35
2019-02-19T05:36:16.726Z,16.95
2019-02-19T05:38:45.510Z,18.17
2019-02-19T05:41:14.387Z,17.65
2019-02-19T05:43:43.157Z,17.12
2019-02-19T05:46:11.903Z,17.17
2019-02-19T05:48:40.691Z,18.48
2019-02-19T05:51:10.436Z,19.52
2019-02-19T05:53:39.161Z,17.62
2019-02-19T05:56:07.924Z,18.20
2019-02-19T05:58:36.666Z,17.75
2019-02-19T06:01:05.406Z,19.30
2019-02-19T06:03:34.250Z,18.30
2019-02-19T06:06:03.051Z,20.45
2019-02-19T06:08:31.906Z,18.50
2019-02-19T06:11:00.594Z,18.40
2019-02-19T06:13:29.545Z,18.25
2019-02-19T06:15:58.252Z,17.75
2019-02-19T06:18:34.189Z,17.10
2019-02-19T06:21:05.697Z,19.35
2019-02-19T06:26:32.823Z,20.17
2019-02-19T06:29:02.912Z,17.70
2019-02-19T06:31:31.620Z,18.15
2019-02-19T06:34:00.463Z,18.92
2019-02-19T06:36:29.163Z,19.55
2019-02-19T06:38:57.880Z,20.00
2019-02-19T06:41:26.590Z,19.77
2019-02-19T06:43:55.355Z,19.98
2019-02-19T06:46:24.039Z,20.68
2019-02-19T06:48:52.932Z,19.57
2019-02-19T06:51:21.715Z,19.60
2019-02-19T06:53:50.428Z,20.32
2019-02-19T06:56:19.096Z,19.80
2019-02-19T06:58:47.762Z,18.02
2019-02-19T07:01:18.008Z,19.27
2019-02-19T07:03:59.142Z,17.98
2019-02-19T07:06:27.837Z,17.85
2019-02-19T07:08:56.526Z,16.87
2019-02-19T07:11:25.337Z,16.37
2019-02-19T07:13:53.990Z,16.42
2019-02-19T07:16:22.824Z,16.32
2019-02-19T07:18:51.588Z,15.90
2019-02-19T07:21:20.280Z,17.02
2019-02-19T07:23:48.858Z,16.73
2019-02-19T07:26:17.562Z,17.27
2019-02-19T07:28:46.313Z,17.40
2019-02-19T07:31:15.126Z,17.47
2019-02-19T07:33:43.804Z,17.90
2019-02-19T07:36:12.506Z,18.63
2019-02-19T07:38:41.251Z,18.10
2019-02-19T07:41:09.946Z,18.30
2019-02-19T07:43:38.570Z,18.53
2019-02-19T07:46:07.376Z,18.40
2019-02-19T07:48:36.091Z,17.57
2019-02-19T07:51:04.787Z,16.87
2019-02-19T07:53:33.485Z,19.57
2019-02-19T07:56:02.244Z,18.17
2019-02-19T07:58:30.966Z,18.50
2019-02-19T08:00:59.770Z,17.13
2019-02-19T08:03:28.390Z,18.13
2019-02-19T08:05:57.095Z,16.73
2019-02-19T08:08:25.823Z,18.27
2019-02-19T08:10:54.477Z,19.17
2019-02-19T08:13:23.187Z,16.40
2019-02-19T08:15:51.928Z,15.93
2019-02-19T08:18:20.582Z,18.27
2019-02-19T08:20:49.290Z,15.53
2019-02-19T08:23:18.017Z,15.23
2019-02-19T08:25:46.658Z,14.40
2019-02-19T08:28:15.350Z,16.50
2019-02-19T08:30:44.176Z,15.30
2019-02-19T08:33:12.887Z,15.33
2019-02-19T08:35:41.559Z,14.40
2019-02-19T08:38:10.256Z,15.43
2019-02-19T08:40:38.846Z,15.80
2019-02-19T08:43:13.364Z,15.83
2019-02-19T08:45:42.047Z,15.43
2019-02-19T08:48:10.816Z,15.47
2019-02-19T08:50:39.526Z,16.33
2019-02-19T08:53:08.108Z,15.47
2019-02-19T08:55:36.788Z,15.67
2019-02-19T08:58:05.490Z,15.47
2019-02-19T09:00:34.178Z,15.13
2019-02-19T09:03:02.913Z,14.83
2019-02-19T09:05:31.576Z,15.40
2019-02-19T09:08:00.324Z,14.90
2019-02-19T09:10:29.050Z,13.87
2019-02-19T09:12:57.829Z,15.90
2019-02-19T09:15:26.597Z,15.27
2019-02-19T09:17:55.345Z,14.97
2019-02-19T09:20:24.072Z,15.10
2019-02-19T09:22:52.801Z,14.07
2019-02-19T09:25:21.575Z,14.53
2019-02-19T09:27:50.271Z,15.27
2019-02-19T09:30:18.954Z,14.07
2019-02-19T09:32:47.650Z,15.57
2019-02-19T09:35:16.334Z,14.30
2019-02-19T09:37:45.056Z,13.90
2019-02-19T09:40:13.706Z,13.67
2019-02-19T09:42:43.482Z,13.93
2019-02-19T09:45:12.225Z,13.03
2019-02-19T09:47:40.938Z,14.10
2019-02-19T09:50:09.654Z,13.27
2019-02-19T09:52:38.482Z,13.40
2019-02-19T09:55:07.256Z,11.77
2019-02-19T09:57:35.996Z,12.70
2019-02-19T10:00:05.931Z,13.07
2019-02-19T10:02:34.640Z,12.47
2019-02-19T10:05:03.316Z,12.83
2019-02-19T10:07:32.054Z,11.80
2019-02-19T10:10:00.725Z,11.33
2019-02-19T10:12:29.509Z,12.33
2019-02-19T10:14:58.171Z,12.80
2019-02-19T10:17:26.866Z,12.87
2019-02-19T10:19:55.446Z,11.77
2019-02-19T10:22:24.269Z,12.00
2019-02-19T10:24:53.454Z,12.97
2019-02-19T10:27:22.201Z,12.23
2019-02-19T10:29:50.890Z,11.13
2019-02-19T10:32:19.478Z,11.50
2019-02-19T10:34:48.201Z,12.10
2019-02-19T10:37:16.922Z,11.63
2019-02-19T10:39:45.731Z,11.77
2019-02-19T10:42:14.460Z,11.17
2019-02-19T10:44:43.190Z,11.00
2019-02-19T10:47:11.852Z,10.93
2019-02-19T10:49:40.718Z,11.83
2019-02-19T10:52:09.388Z,12.27
2019-02-19T10:54:38.067Z,10.87
2019-02-19T10:57:06.791Z,10.67
2019-02-19T10:59:35.554Z,10.47
2019-02-19T11:02:04.291Z,10.03
2019-02-19T11:04:32.943Z,10.77
2019-02-19T11:07:01.638Z,10.73
2019-02-19T11:09:30.385Z,11.50
2019-02-19T11:11:59.061Z,12.10
2019-02-19T11:14:27.785Z,11.77
2019-02-19T11:16:56.586Z,11.03
2019-02-19T11:19:25.417Z,11.27
2019-02-19T11:21:54.175Z,12.73
2019-02-19T11:24:22.916Z,12.43
2019-02-19T11:26:51.736Z,12.47
2019-02-19T11:29:20.422Z,12.00
2019-02-19T11:31:49.133Z,11.33
2019-02-19T11:34:18.461Z,11.33
2019-02-19T11:36:47.048Z,9.93
2019-02-19T11:39:15.760Z,10.13
2019-02-19T11:41:44.579Z,9.37
2019-02-19T11:44:13.170Z,9.63
2019-02-19T11:46:41.922Z,10.57
2019-02-19T11:49:10.677Z,9.73
2019-02-19T11:51:39.316Z,9.93
2019-02-19T11:54:08.053Z,9.17
2019-02-19T11:56:36.800Z,9.67
2019-02-19T11:59:05.532Z,9.80
2019-02-19T12:01:34.207Z,9.67
2019-02-19T12:04:02.869Z,9.83
2019-02-19T12:06:31.595Z,8.93
2019-02-19T12:09:00.322Z,10.17
2019-02-19T12:11:28.949Z,9.57
2019-02-19T12:13:57.634Z,9.33
2019-02-19T12:16:26.492Z,8.97
2019-02-19T12:18:55.250Z,9.10
2019-02-19T12:21:23.954Z,9.43
2019-02-19T12:23:52.669Z,9.53
2019-02-19T12:26:21.394Z,9.63
2019-02-19T12:28:50.079Z,9.30
2019-02-19T12:31:18.810Z,9.40
2019-02-19T12:33:47.495Z,8.30
2019-02-19T12:36:16.224Z,9.17
2019-02-19T12:38:44.918Z,8.80
2019-02-19T12:41:13.724Z,9.73
2019-02-19T12:43:42.447Z,9.20
2019-02-19T12:46:11.168Z,9.00
2019-02-19T12:48:39.840Z,8.97
2019-02-19T12:51:08.501Z,8.63
2019-02-19T12:53:37.080Z,8.73
2019-02-19T12:56:05.723Z,9.10
2019-02-19T12:58:34.430Z,9.30
2019-02-19T13:01:03.217Z,9.17
2019-02-19T13:03:31.910Z,8.20
2019-02-19T13:06:00.576Z,7.83
2019-02-19T13:08:29.322Z,7.27
2019-02-19T13:10:58.015Z,6.97
2019-02-19T13:13:26.761Z,7.90
2019-02-19T13:15:55.416Z,7.20
2019-02-19T13:18:24.064Z,7.53
2019-02-19T13:20:53.768Z,8.23
2019-02-19T13:23:22.496Z,7.77
2019-02-19T13:25:51.187Z,7.43
2019-02-19T13:28:19.829Z,7.83
2019-02-19T13:30:48.615Z,8.07
2019-02-19T13:33:17.288Z,6.80
2019-02-19T13:35:46.010Z,7.43
2019-02-19T13:38:14.729Z,7.37
2019-02-19T13:40:43.533Z,8.03
2019-02-19T13:43:12.194Z,7.67
2019-02-19T13:45:40.912Z,7.30
2019-02-19T13:48:09.601Z,6.70
2019-02-19T13:50:38.591Z,7.33
2019-02-19T13:53:24.292Z,7.23
2019-02-19T13:55:55.419Z,7.77
2019-02-19T13:58:24.116Z,8.40
2019-02-19T14:00:52.901Z,7.03
2019-02-19T14:03:21.621Z,7.00
2019-02-19T14:05:50.394Z,7.10
2019-02-19T14:08:19.095Z,7.37
2019-02-19T14:10:47.847Z,6.93
2019-02-19T14:13:16.600Z,7.13
2019-02-19T14:16:19.306Z,7.07
2019-02-19T14:19:05.684Z,7.00
2019-02-19T14:22:08.363Z,7.47
2019-02-19T14:25:01.939Z,7.80
2019-02-19T14:27:49.655Z,7.03
2019-02-19T14:30:37.377Z,7.13
2019-02-19T14:33:21.822Z,7.97
2019-02-19T14:36:11.226Z,7.97
2019-02-19T14:38:57.626Z,7.07
2019-02-19T14:41:42.444Z,8.20
2019-02-19T14:44:45.166Z,7.00
2019-02-19T14:47:32.887Z,7.80
2019-02-19T14:50:23.418Z,8.40
2019-02-19T14:53:17.226Z,7.67
2019-02-19T14:56:13.870Z,8.07
2019-02-19T14:59:16.802Z,7.23
2019-02-19T15:02:07.447Z,8.70
2019-02-19T15:04:53.990Z,7.93
2019-02-19T15:07:44.576Z,9.00
2019-02-19T15:10:38.529Z,8.60
2019-02-19T15:13:35.754Z,8.77
2019-02-19T15:16:26.601Z,8.40
2019-02-19T15:19:21.260Z,8.87
2019-02-19T15:22:01.202Z,8.70
2019-02-19T15:24:47.684Z,8.63
2019-02-19T15:27:41.484Z,8.50
2019-02-19T15:30:31.954Z,9.17
2019-02-19T15:33:32.942Z,8.93
2019-02-19T15:36:29.686Z,9.00
2019-02-19T15:39:08.621Z,9.57
2019-02-19T15:42:01.116Z,8.97
2019-02-19T15:45:00.976Z,9.07
2019-02-19T15:47:43.232Z,8.70
2019-02-19T15:50:29.435Z,8.73
2019-02-19T15:53:29.404Z,8.77
2019-02-19T15:56:17.554Z,8.93
2019-02-19T15:59:05.054Z,9.90
2019-02-19T16:01:41.677Z,9.80
2019-02-19T16:04:32.781Z,10.17
2019-02-19T16:07:19.060Z,9.70
2019-02-19T16:10:02.710Z,8.90
2019-02-19T16:12:41.820Z,8.97
2019-02-19T16:15:38.424Z,9.60
2019-02-19T16:18:24.869Z,9.77
2019-02-19T16:21:05.978Z,9.57
2019-02-19T16:23:43.472Z,10.30
2019-02-19T16:26:22.515Z,8.10
2019-02-19T16:29:08.662Z,7.70
2019-02-19T16:31:47.135Z,8.07
2019-02-19T16:34:22.268Z,6.33
2019-02-19T16:37:08.608Z,6.70
2019-02-19T16:40:11.549Z,6.10
2019-02-19T16:42:57.461Z,6.90
2019-02-19T16:45:43.940Z,7.10
2019-02-19T16:48:37.770Z,6.63
2019-02-19T16:51:16.518Z,6.53
2019-02-19T16:54:03.010Z,6.97
2019-02-19T16:56:59.949Z,6.40
2019-02-19T16:59:50.572Z,6.30
2019-02-19T17:02:42.911Z,7.67
2019-02-19T17:05:27.208Z,6.80
2019-02-19T17:08:13.445Z,6.83
2019-02-19T17:10:58.330Z,6.57
2019-02-19T17:13:57.842Z,7.27
2019-02-19T17:16:37.204Z,7.23
2019-02-19T17:19:16.585Z,7.97
2019-02-19T17:22:04.321Z,7.33
2019-02-19T17:24:57.813Z,7.73
2019-02-19T17:27:48.398Z,8.33
2019-02-19T17:30:53.524Z,7.93
2019-02-19T17:33:49.406Z,8.03
2019-02-19T17:36:37.121Z,7.97
2019-02-19T17:39:20.047Z,8.43
2019-02-19T17:41:58.316Z,7.70
2019-02-19T17:44:44.216Z,7.57
2019-02-19T17:47:38.027Z,9.10
2019-02-19T17:50:26.664Z,8.33
2019-02-19T17:53:03.598Z,8.10
2019-02-19T17:56:01.881Z,8.87
2019-02-19T17:58:57.644Z,8.27
2019-02-19T18:02:00.363Z,8.40
2019-02-19T18:04:39.254Z,8.40
2019-02-19T18:07:42.409Z,8.30
2019-02-19T18:10:35.724Z,8.77
2019-02-19T18:13:22.092Z,9.40
2019-02-19T18:16:09.897Z,9.20
2019-02-19T18:18:49.076Z,9.23
2019-02-19T18:21:18.508Z,9.47
2019-02-19T18:23:47.343Z,9.03
2019-02-19T18:26:16.144Z,9.77
2019-02-19T18:28:44.941Z,9.43
2019-02-19T18:31:13.707Z,10.20
2019-02-19T18:33:42.430Z,9.27
2019-02-19T18:36:11.249Z,9.97
2019-02-19T18:38:39.998Z,9.67
2019-02-19T18:41:08.788Z,8.97
2019-02-19T18:43:37.372Z,9.10
2019-02-19T18:46:06.188Z,9.27
2019-02-19T18:48:35.176Z,8.57
2019-02-19T18:51:04.089Z,8.90
2019-02-19T18:53:32.939Z,9.00
2019-02-19T18:56:01.897Z,9.27
2019-02-19T18:58:30.715Z,9.13
2019-02-19T19:00:59.431Z,9.20
2019-02-19T19:03:28.561Z,8.57
2019-02-19T19:05:57.470Z,8.30
2019-02-19T19:08:26.366Z,8.40
2019-02-19T19:10:55.114Z,9.27
2019-02-19T19:13:23.897Z,9.57
2019-02-19T19:15:52.619Z,8.67
2019-02-19T19:18:21.483Z,8.80
2019-02-19T19:20:50.270Z,9.13
2019-02-19T19:23:19.017Z,8.67
2019-02-19T19:25:47.712Z,8.67
2019-02-19T19:28:16.343Z,8.70
2019-02-19T19:30:45.034Z,9.13
2019-02-19T19:33:13.712Z,8.80
2019-02-19T19:35:42.423Z,8.93
2019-02-19T19:38:11.082Z,9.07
2019-02-19T19:40:39.799Z,8.80
2019-02-19T19:43:08.495Z,8.93
2019-02-19T19:45:37.288Z,8.93
2019-02-19T19:48:06.073Z,8.67
2019-02-19T19:50:34.826Z,8.30
2019-02-19T19:53:03.605Z,8.43
2019-02-19T19:55:32.314Z,8.27
2019-02-19T19:58:01.097Z,8.17
2019-02-19T20:00:29.895Z,8.50
2019-02-19T20:02:58.637Z,8.80
2019-02-19T20:05:27.328Z,8.97
2019-02-19T20:07:56.048Z,8.73
2019-02-19T20:10:24.793Z,8.40
2019-02-19T20:12:53.528Z,8.47
2019-02-19T20:15:22.253Z,8.37
2019-02-19T20:17:50.981Z,8.70
2019-02-19T20:20:19.732Z,9.33
2019-02-19T20:22:48.503Z,9.10
2019-02-19T20:25:17.250Z,9.17
2019-02-19T20:27:45.962Z,8.83
2019-02-19T20:30:14.653Z,8.97
2019-02-19T20:32:43.387Z,9.37
2019-02-19T20:35:12.069Z,8.30
2019-02-19T20:37:40.903Z,8.63
2019-02-19T20:40:09.946Z,8.20
2019-02-19T20:42:38.785Z,8.13
2019-02-19T20:45:07.529Z,8.63
2019-02-19T20:47:36.240Z,9.17
2019-02-19T20:50:05.384Z,8.47
2019-02-19T20:52:34.152Z,9.10
2019-02-19T20:55:02.957Z,8.87
2019-02-19T20:57:31.722Z,10.03
2019-02-19T21:00:00.494Z,8.93
2019-02-19T21:02:29.104Z,8.57
2019-02-19T21:04:57.836Z,9.90
2019-02-19T21:07:26.626Z,8.57
2019-02-19T21:09:55.503Z,11.00
2019-02-19T21:12:24.304Z,11.30
2019-02-19T21:14:53.058Z,10.67
2019-02-19T21:17:21.935Z,10.93
2019-02-19T21:19:50.788Z,11.03
2019-02-19T21:22:19.552Z,10.10
2019-02-19T21:24:48.861Z,10.83
2019-02-19T21:27:17.615Z,9.80
2019-02-19T21:29:46.381Z,10.70
2019-02-19T21:32:15.148Z,11.10
2019-02-19T21:34:43.878Z,11.73
2019-02-19T21:37:12.634Z,11.60
2019-02-19T21:39:41.463Z,12.70
2019-02-19T21:42:10.255Z,11.80
2019-02-19T21:44:38.925Z,11.40
2019-02-19T21:47:07.691Z,10.87
2019-02-19T21:49:36.421Z,11.77
2019-02-19T21:52:05.278Z,12.43
2019-02-19T21:54:34.002Z,11.30
2019-02-19T21:57:02.853Z,12.30
2019-02-19T21:59:31.637Z,12.67
2019-02-19T22:02:00.318Z,12.63
2019-02-19T22:04:28.992Z,11.73
2019-02-19T22:06:57.711Z,12.33
2019-02-19T22:09:26.392Z,13.17
2019-02-19T22:11:55.147Z,13.67
2019-02-19T22:14:23.942Z,13.17
2019-02-19T22:16:52.627Z,13.20
2019-02-19T22:19:21.359Z,12.27
2019-02-19T22:22:04.502Z,12.17
2019-02-19T22:24:38.011Z,15.27
2019-02-19T22:27:10.956Z,14.77
2019-02-19T22:29:39.662Z,13.97
2019-02-19T22:32:08.992Z,14.37
2019-02-19T22:34:37.662Z,13.80
2019-02-19T22:37:06.260Z,15.00
2019-02-19T22:39:35.255Z,15.80
2019-02-19T22:42:03.996Z,16.00
2019-02-19T22:44:32.743Z,15.33
2019-02-19T22:47:01.451Z,17.50
2019-02-19T22:49:30.129Z,16.10
2019-02-19T22:51:58.776Z,16.47
2019-02-19T22:54:46.589Z,16.30
2019-02-19T22:57:15.391Z,16.00
2019-02-19T22:59:44.095Z,16.50
2019-02-19T23:02:29.983Z,16.33
2019-02-19T23:04:58.758Z,15.57
2019-02-19T23:07:27.456Z,14.10
2019-02-19T23:09:56.190Z,15.40
2019-02-19T23:12:24.954Z,14.67
2019-02-19T23:14:53.635Z,14.43
2019-02-19T23:17:22.314Z,14.27
2019-02-19T23:19:51.004Z,14.70
2019-02-19T23:22:21.912Z,13.20
2019-02-19T23:24:50.498Z,16.03
2019-02-19T23:27:19.289Z,15.37
2019-02-19T23:29:48.008Z,14.30
2019-02-19T23:32:16.702Z,13.83
2019-02-19T23:34:45.963Z,13.80
2019-02-19T23:37:25.520Z,14.70
2019-02-19T23:39:54.231Z,14.80
2019-02-19T23:42:23.219Z,15.63
2019-02-19T23:44:51.924Z,14.63
2019-02-19T23:47:20.711Z,13.40
2019-02-19T23:49:49.427Z,14.17
2019-02-19T23:52:18.041Z,15.07
2019-02-19T23:54:46.729Z,14.53
2019-02-19T23:57:15.485Z,16.10
2019-02-19T23:59:44.250Z,13.90
